Time;durP1;ratioP1;P1;durP2;ratioP2;P2;SDS_P1;SDS_P2;PMS_P1;PMS_P2;Temp;Humidity;BMP_temperature;BMP_pressure;BME280_temperature;BME280_humidity;BME280_pressure;Samples;Min_cycle;Max_cycle;Signal;HPM_P1;HPM_P2
2021/01/29 00:01:21;;;;;;;3.03;2.77;;;-0.80;96.30;;;;;;4995627;28;20537;-79
2021/01/29 00:03:47;;;;;;;3.30;3.00;;;-0.90;96.30;;;;;;4978198;28;20203;-79
2021/01/29 00:06:12;;;;;;;2.60;2.40;;;-0.90;96.30;;;;;;4994875;28;20252;-79
2021/01/29 00:08:38;;;;;;;3.60;2.10;;;-0.90;96.30;;;;;;4993988;28;20181;-79
2021/01/29 00:11:05;;;;;;;3.50;3.20;;;-0.90;96.30;;;;;;4994706;28;20240;-79
2021/01/29 00:13:30;;;;;;;3.07;2.77;;;-0.90;96.30;;;;;;4980948;28;20181;-78
2021/01/29 00:15:56;;;;;;;2.57;2.20;;;-1.00;96.30;;;;;;4975360;28;20433;-79
2021/01/29 00:18:22;;;;;;;2.63;2.43;;;-0.90;96.30;;;;;;4957741;28;20174;-79
2021/01/29 00:20:49;;;;;;;3.03;2.50;;;-0.90;96.30;;;;;;4975949;28;20436;-79
2021/01/29 00:23:16;;;;;;;3.20;2.40;;;-0.80;96.30;;;;;;4975936;28;20418;-79
2021/01/29 00:25:46;;;;;;;3.20;2.20;;;-0.80;96.30;;;;;;4987796;28;20494;-79
2021/01/29 00:28:13;;;;;;;2.73;2.50;;;-0.80;96.30;;;;;;4994421;28;20401;-79
2021/01/29 00:30:39;;;;;;;2.53;2.33;;;-0.80;96.30;;;;;;4995198;28;20420;-79
2021/01/29 00:33:06;;;;;;;2.80;2.53;;;-0.80;96.30;;;;;;4995084;28;20409;-79
2021/01/29 00:35:33;;;;;;;3.13;2.83;;;-0.80;96.30;;;;;;4993124;28;20939;-79
2021/01/29 00:37:59;;;;;;;4.10;3.70;;;-0.80;96.30;;;;;;4994982;28;20413;-79
2021/01/29 00:40:25;;;;;;;4.03;3.40;;;-0.80;96.30;;;;;;4994875;28;20445;-78
2021/01/29 00:42:50;;;;;;;3.43;3.13;;;-0.80;96.30;;;;;;4994939;28;20448;-78
2021/01/29 00:45:20;;;;;;;3.90;3.50;;;-0.80;96.30;;;;;;4976871;28;20444;-79
2021/01/29 00:47:46;;;;;;;3.87;3.30;;;-0.80;96.30;;;;;;4994691;28;20193;-79
2021/01/29 00:50:12;;;;;;;5.70;3.37;;;-0.90;96.30;;;;;;4994750;28;20409;-79
2021/01/29 00:52:38;;;;;;;37.40;5.97;;;-0.90;96.30;;;;;;4994616;28;20212;-79
2021/01/29 00:55:05;;;;;;;75.30;6.83;;;-0.90;96.30;;;;;;4994117;28;20440;-79
2021/01/29 00:57:30;;;;;;;101.03;7.67;;;-0.90;96.30;;;;;;4977055;28;20736;-78
2021/01/29 00:59:56;;;;;;;466.53;11.60;;;-0.90;96.30;;;;;;4977069;28;20552;-79
2021/01/29 05:02:37;;;;;;;10.33;7.47;;;-0.80;96.30;;;;;;5311693;23;20748;-79
2021/01/29 05:05:25;;;;;;;10.00;7.33;;;-0.80;96.30;;;;;;4995615;28;20428;-79
2021/01/29 05:08:29;;;;;;;8.30;6.83;;;-0.70;96.30;;;;;;4977282;28;20431;-79
2021/01/29 05:11:11;;;;;;;8.20;6.87;;;-0.80;96.30;;;;;;4994357;28;20436;-80
2021/01/29 05:13:50;;;;;;;9.50;6.73;;;-0.70;96.30;;;;;;5005197;28;20436;-79
2021/01/29 05:16:36;;;;;;;9.80;7.40;;;-0.60;96.30;;;;;;4999764;23;20937;-77
2021/01/29 05:19:29;;;;;;;11.60;8.27;;;-0.60;96.30;;;;;;4963984;28;20500;-77
2021/01/29 05:22:20;;;;;;;12.33;8.53;;;-0.60;96.30;;;;;;4978534;28;20913;-78
2021/01/29 05:25:35;;;;;;;12.23;9.27;;;-0.60;96.30;;;;;;4993946;28;20412;-78
2021/01/29 05:28:20;;;;;;;9.63;8.00;;;-0.60;96.30;;;;;;4955324;29;20489;-78
2021/01/29 05:31:00;;;;;;;8.70;7.20;;;-0.70;96.30;;;;;;4938205;29;20406;-78
2021/01/29 05:33:36;;;;;;;10.33;7.07;;;-0.60;96.30;;;;;;4954489;29;20387;-78
2021/01/29 05:36:11;;;;;;;8.73;6.60;;;-0.70;96.30;;;;;;4937434;29;20537;-78
2021/01/29 05:39:14;;;;;;;12.30;7.90;;;-0.60;96.30;;;;;;4938023;29;20406;-78
2021/01/29 05:41:45;;;;;;;8.83;7.17;;;-0.60;96.30;;;;;;4955085;29;20459;-78
2021/01/29 05:44:29;;;;;;;11.50;8.70;;;-0.60;96.30;;;;;;4954940;29;20497;-78
2021/01/29 05:47:19;;;;;;;10.97;8.03;;;-0.60;96.30;;;;;;4954491;28;20785;-78
2021/01/29 05:50:14;;;;;;;8.70;7.30;;;-0.50;96.30;;;;;;4955055;29;20391;-78
2021/01/29 05:53:14;;;;;;;10.10;7.57;;;-0.50;96.30;;;;;;4954933;29;20541;-78
2021/01/29 05:56:17;;;;;;;8.10;6.33;;;-0.50;96.30;;;;;;4936911;29;20496;-78
2021/01/29 05:59:08;;;;;;;10.33;7.47;;;-0.50;96.30;;;;;;4954752;29;20846;-78
2021/01/29 06:02:00;;;;;;;10.43;7.30;;;-0.50;96.30;;;;;;4954763;29;21089;-78
2021/01/29 06:04:34;;;;;;;9.27;7.50;;;-0.50;96.30;;;;;;4954766;29;20405;-78
2021/01/29 06:07:19;;;;;;;7.13;5.10;;;-0.50;96.30;;;;;;4953477;28;20435;-78
2021/01/29 06:10:22;;;;;;;6.70;5.43;;;-0.40;96.30;;;;;;4954466;29;20439;-79
2021/01/29 06:13:09;;;;;;;8.47;6.13;;;-0.40;96.30;;;;;;4962824;28;20433;-78
2021/01/29 06:16:11;;;;;;;6.93;5.47;;;-0.40;96.30;;;;;;4952771;29;20461;-78
2021/01/29 06:19:07;;;;;;;8.90;6.57;;;-0.40;96.30;;;;;;4952414;29;20513;-80
2021/01/29 06:21:59;;;;;;;8.27;6.20;;;-0.40;96.30;;;;;;4954312;29;20922;-77
2021/01/29 06:25:02;;;;;;;12.00;6.70;;;-0.30;96.30;;;;;;4954349;29;20415;-79
2021/01/29 06:27:36;;;;;;;7.97;7.00;;;-0.30;96.30;;;;;;4954219;29;20785;-78
2021/01/29 06:30:34;;;;;;;8.37;7.57;;;-0.30;96.30;;;;;;4954342;29;20399;-78
2021/01/29 06:33:30;;;;;;;9.77;8.37;;;-0.30;96.30;;;;;;4953942;28;20922;-78
2021/01/29 06:36:12;;;;;;;14.53;9.60;;;-0.30;96.30;;;;;;4953955;28;20470;-78
2021/01/29 06:39:15;;;;;;;11.77;8.63;;;-0.20;96.30;;;;;;4940151;29;20418;-78
2021/01/29 06:42:23;;;;;;;11.23;6.10;;;-0.30;96.30;;;;;;4954089;29;20513;-77
2021/01/29 06:45:20;;;;;;;6.23;5.40;;;-0.20;96.30;;;;;;4953799;29;20783;-77
2021/01/29 06:48:16;;;;;;;6.93;6.10;;;-0.20;96.30;;;;;;4954059;29;20419;-78
2021/01/29 06:51:02;;;;;;;8.67;6.90;;;-0.20;96.30;;;;;;4953949;29;20391;-78
2021/01/29 06:53:46;;;;;;;7.00;5.27;;;-0.20;96.30;;;;;;4954136;29;20430;-77
2021/01/29 06:56:16;;;;;;;10.00;6.10;;;-0.20;96.30;;;;;;4953397;29;20430;-77
2021/01/29 06:59:18;;;;;;;7.03;5.80;;;-0.20;96.30;;;;;;4953572;29;20403;-76
2021/01/29 07:01:49;;;;;;;7.83;6.60;;;-0.20;96.30;;;;;;4937033;29;20410;-77
2021/01/29 07:04:38;;;;;;;7.97;5.93;;;-0.10;96.30;;;;;;4937004;29;20418;-78
2021/01/29 07:07:15;;;;;;;9.40;6.67;;;-0.10;96.30;;;;;;4953507;28;20427;-79
2021/01/29 07:10:02;;;;;;;11.43;8.20;;;-0.10;96.30;;;;;;4953832;29;20813;-78
2021/01/29 07:12:39;;;;;;;8.00;6.03;;;-0.10;96.30;;;;;;4959611;28;20421;-78
2021/01/29 07:15:11;;;;;;;10.10;7.27;;;0.00;96.30;;;;;;4973848;28;20398;-78
2021/01/29 07:17:58;;;;;;;9.53;7.10;;;-0.10;96.30;;;;;;4956677;28;20411;-78
2021/01/29 07:20:42;;;;;;;4.40;3.97;;;-0.10;96.30;;;;;;4952020;29;20457;-79
2021/01/29 07:23:46;;;;;;;5.53;4.93;;;0.00;96.30;;;;;;4953419;29;20478;-79
2021/01/29 07:26:18;;;;;;;5.93;4.70;;;0.00;96.30;;;;;;4953211;28;20466;-79
2021/01/29 07:29:11;;;;;;;6.27;4.23;;;0.00;96.30;;;;;;4953889;29;20395;-79
2021/01/29 07:31:48;;;;;;;5.67;4.57;;;0.00;96.30;;;;;;4934516;29;20436;-79
2021/01/29 07:34:57;;;;;;;3.73;3.30;;;0.00;96.30;;;;;;4933895;29;20406;-79
2021/01/29 07:37:32;;;;;;;4.70;4.20;;;0.10;96.30;;;;;;4872395;29;20444;-79
2021/01/29 07:40:22;;;;;;;4.80;4.00;;;0.10;96.30;;;;;;4934438;29;20454;-79
2021/01/29 07:42:50;;;;;;;6.50;4.80;;;0.10;96.30;;;;;;4934357;29;20418;-79
2021/01/29 07:45:49;;;;;;;4.43;3.63;;;0.10;96.30;;;;;;4935736;29;20470;-79
2021/01/29 07:48:26;;;;;;;5.73;4.10;;;0.10;96.30;;;;;;4937982;29;20887;-78
2021/01/29 07:51:15;;;;;;;4.20;2.83;;;0.10;96.30;;;;;;4936704;29;20391;-79
2021/01/29 07:54:26;;;;;;;5.97;4.03;;;0.10;96.30;;;;;;4937893;29;20451;-78
2021/01/29 07:57:08;;;;;;;4.73;3.80;;;0.20;96.30;;;;;;4915736;29;20475;-79
2021/01/29 08:00:04;;;;;;;5.10;3.83;;;0.20;96.30;;;;;;4938321;29;20444;-79
2021/01/29 08:03:05;;;;;;;7.13;4.40;;;0.20;96.30;;;;;;4953380;29;20426;-78
2021/01/29 08:05:42;;;;;;;4.80;3.10;;;0.20;96.30;;;;;;4956202;29;20426;-79
2021/01/29 08:08:17;;;;;;;5.40;3.97;;;0.30;96.30;;;;;;4955968;29;20742;-79
2021/01/29 08:10:45;;;;;;;7.73;3.77;;;0.20;96.30;;;;;;4937488;29;20411;-79
2021/01/29 08:13:26;;;;;;;5.77;4.33;;;0.20;96.30;;;;;;4956673;28;20457;-78
2021/01/29 08:16:25;;;;;;;5.50;4.80;;;0.30;96.30;;;;;;4933814;29;20481;-78
2021/01/29 08:19:30;;;;;;;5.27;4.20;;;0.30;96.30;;;;;;4956620;29;20446;-78
2021/01/29 08:22:31;;;;;;;5.57;3.40;;;0.30;96.30;;;;;;4954997;29;20450;-78
2021/01/29 08:25:04;;;;;;;3.53;2.97;;;0.30;96.30;;;;;;4938971;29;20413;-78
2021/01/29 08:28:10;;;;;;;4.53;2.50;;;0.40;96.30;;;;;;4955913;29;20450;-79
2021/01/29 08:30:58;;;;;;;6.47;4.60;;;0.40;96.30;;;;;;4955875;29;20422;-79
2021/01/29 08:34:00;;;;;;;6.40;4.43;;;0.30;96.30;;;;;;4956178;29;20430;-79
2021/01/29 08:37:06;;;;;;;4.50;3.60;;;0.40;96.30;;;;;;4957649;28;20808;-79
2021/01/29 08:39:43;;;;;;;6.43;3.40;;;0.40;96.30;;;;;;4955892;29;20866;-79
2021/01/29 08:42:28;;;;;;;8.83;4.80;;;0.40;96.30;;;;;;4927744;29;20433;-79
2021/01/29 08:45:29;;;;;;;4.73;3.33;;;0.40;96.30;;;;;;4944823;28;20426;-79
2021/01/29 08:48:03;;;;;;;6.37;5.03;;;0.40;96.30;;;;;;4954807;29;20418;-79
2021/01/29 08:50:44;;;;;;;3.60;2.63;;;0.40;96.30;;;;;;4956023;29;20430;-79
2021/01/29 08:53:50;;;;;;;4.57;3.67;;;0.40;96.30;;;;;;4955389;29;20494;-79
2021/01/29 08:56:38;;;;;;;4.37;3.40;;;0.50;96.30;;;;;;4933178;29;20456;-79
2021/01/29 08:59:08;;;;;;;4.83;3.10;;;0.50;96.30;;;;;;4955791;29;21032;-80
2021/01/29 09:01:39;;;;;;;4.47;3.80;;;0.50;96.30;;;;;;4955912;29;20461;-79
2021/01/29 09:04:36;;;;;;;9.30;6.00;;;0.50;96.30;;;;;;4955679;29;20438;-79
2021/01/29 09:07:07;;;;;;;7.70;4.47;;;0.60;96.30;;;;;;4950977;28;20458;-79
2021/01/29 09:09:37;;;;;;;9.50;5.67;;;0.60;96.30;;;;;;4936686;29;20412;-79
2021/01/29 09:12:12;;;;;;;9.90;6.43;;;0.60;96.30;;;;;;4966389;28;20426;-79
2021/01/29 09:15:13;;;;;;;2.93;2.67;;;0.70;96.30;;;;;;4955593;29;20430;-79
2021/01/29 09:17:47;;;;;;;5.50;3.30;;;0.60;96.30;;;;;;4955783;29;20414;-80
2021/01/29 09:20:13;;;;;;;3.00;2.70;;;0.60;96.30;;;;;;4955620;29;20493;-80
2021/01/29 09:22:54;;;;;;;3.23;2.53;;;0.60;96.30;;;;;;4938388;29;20418;-80
2021/01/29 09:25:27;;;;;;;3.13;2.10;;;0.70;96.30;;;;;;4937649;28;20423;-80
2021/01/29 09:28:07;;;;;;;1.90;1.73;;;0.70;96.30;;;;;;4955706;29;20929;-80
2021/01/29 09:30:35;;;;;;;4.03;2.63;;;0.80;96.30;;;;;;4938399;29;20525;-80
2021/01/29 09:33:25;;;;;;;3.13;2.50;;;0.80;96.30;;;;;;4956002;29;20422;-80
2021/01/29 09:36:13;;;;;;;3.57;3.07;;;0.80;96.30;;;;;;4953566;28;20545;-80
2021/01/29 09:38:51;;;;;;;3.30;2.17;;;0.70;96.30;;;;;;4955694;29;20501;-80
2021/01/29 09:41:22;;;;;;;2.70;2.00;;;0.70;96.30;;;;;;4956507;29;20437;-80
2021/01/29 09:43:54;;;;;;;3.13;2.03;;;0.70;96.30;;;;;;4955522;29;20529;-80
2021/01/29 09:46:27;;;;;;;4.40;1.67;;;0.70;96.30;;;;;;4936591;29;20445;-80
2021/01/29 09:49:07;;;;;;;2.50;1.77;;;0.70;96.30;;;;;;4919654;29;20411;-81
2021/01/29 09:51:43;;;;;;;3.83;1.90;;;0.60;96.30;;;;;;4937503;29;20414;-80
2021/01/29 09:54:25;;;;;;;1.87;1.30;;;0.50;96.30;;;;;;4919456;29;20965;-80
2021/01/29 09:56:56;;;;;;;3.20;1.33;;;0.60;96.30;;;;;;4950267;28;20461;-80
2021/01/29 09:59:57;;;;;;;1.87;1.60;;;0.60;96.30;;;;;;4955132;29;20821;-80
2021/01/29 10:02:50;;;;;;;4.23;2.43;;;0.60;96.30;;;;;;4928094;29;20430;-81
2021/01/29 10:05:36;;;;;;;2.50;2.00;;;0.60;96.30;;;;;;4938163;28;20402;-80
2021/01/29 10:08:23;;;;;;;3.17;1.83;;;0.60;96.30;;;;;;4955361;28;20915;-80
2021/01/29 10:11:02;;;;;;;2.60;2.10;;;0.60;96.30;;;;;;4939919;29;20422;-81
2021/01/29 10:14:00;;;;;;;3.20;2.23;;;0.60;96.30;;;;;;4954651;28;20429;-80
2021/01/29 10:16:55;;;;;;;4.23;2.90;;;0.50;96.30;;;;;;4944265;29;20461;-80
2021/01/29 10:19:29;;;;;;;3.47;2.67;;;0.60;96.30;;;;;;4955580;29;20446;-80
2021/01/29 10:21:58;;;;;;;4.17;2.97;;;0.60;96.30;;;;;;4939571;29;20402;-79
2021/01/29 10:24:58;;;;;;;4.00;2.83;;;0.50;96.30;;;;;;4938098;29;20426;-80
2021/01/29 10:27:43;;;;;;;2.03;1.53;;;0.50;96.30;;;;;;4913254;29;20442;-80
2021/01/29 10:30:39;;;;;;;3.50;2.40;;;0.50;96.30;;;;;;4955532;29;20414;-79
2021/01/29 10:33:11;;;;;;;1.77;1.53;;;0.50;96.30;;;;;;4956829;29;20480;-80
2021/01/29 10:35:48;;;;;;;3.40;2.43;;;0.50;96.30;;;;;;4939907;29;20545;-80
2021/01/29 10:38:47;;;;;;;2.50;1.60;;;0.40;96.30;;;;;;4958240;29;20886;-80
2021/01/29 10:41:24;;;;;;;3.90;2.30;;;0.30;96.30;;;;;;4939434;29;20433;-79
2021/01/29 10:43:59;;;;;;;3.30;1.90;;;0.40;96.30;;;;;;4956794;29;20460;-79
2021/01/29 10:46:57;;;;;;;2.57;1.27;;;0.30;96.30;;;;;;4955977;28;20456;-80
2021/01/29 10:49:36;;;;;;;1.73;1.17;;;0.30;96.30;;;;;;4942993;28;20414;-80
2021/01/29 10:52:17;;;;;;;1.90;1.50;;;0.40;96.30;;;;;;4976966;28;20506;-80
2021/01/29 10:54:43;;;;;;;2.43;2.03;;;0.30;96.30;;;;;;4963506;28;20455;-80
2021/01/29 10:57:25;;;;;;;4.07;2.87;;;0.50;96.30;;;;;;4952585;28;20617;-80
2021/01/29 11:00:08;;;;;;;1.73;1.57;;;0.50;96.30;;;;;;4962437;29;20454;-81
2021/01/29 11:02:40;;;;;;;2.73;1.70;;;0.40;96.30;;;;;;4946667;29;20423;-80
2021/01/29 11:05:24;;;;;;;3.27;2.17;;;0.40;96.30;;;;;;4943932;28;20418;-80
2021/01/29 11:07:53;;;;;;;4.17;2.57;;;0.50;96.30;;;;;;4963409;28;20414;-80
2021/01/29 11:10:22;;;;;;;2.97;2.10;;;0.50;96.30;;;;;;4967724;29;20786;-80
2021/01/29 11:13:09;;;;;;;3.63;2.50;;;0.60;96.30;;;;;;4975702;28;20418;-80
2021/01/29 11:15:46;;;;;;;3.53;2.17;;;0.60;96.30;;;;;;4941454;29;20857;-80
2021/01/29 11:18:22;;;;;;;1.60;1.30;;;0.60;96.30;;;;;;4954034;29;20407;-80
2021/01/29 11:20:49;;;;;;;3.70;2.83;;;0.60;96.30;;;;;;4937859;29;20458;-80
2021/01/29 11:23:23;;;;;;;2.70;2.10;;;0.50;96.30;;;;;;4961087;28;20492;-80
2021/01/29 11:25:57;;;;;;;4.67;2.00;;;0.50;96.30;;;;;;4956901;28;20434;-80
2021/01/29 11:28:43;;;;;;;4.33;2.33;;;0.60;96.30;;;;;;4957137;29;20424;-80
2021/01/29 11:31:12;;;;;;;3.87;1.90;;;0.70;96.30;;;;;;4939161;29;20946;-80
2021/01/29 11:33:42;;;;;;;1.97;1.70;;;0.60;96.30;;;;;;4956168;28;20886;-79
2021/01/29 11:36:26;;;;;;;2.60;1.57;;;0.50;96.30;;;;;;4939519;29;20443;-79
2021/01/29 11:39:01;;;;;;;3.87;1.90;;;0.60;96.30;;;;;;4939768;29;20419;-79
2021/01/29 11:41:46;;;;;;;5.57;3.60;;;0.70;96.30;;;;;;4955624;28;20426;-79
2021/01/29 11:44:21;;;;;;;3.30;2.73;;;0.80;96.30;;;;;;4939749;29;20429;-79
2021/01/29 11:47:15;;;;;;;3.63;2.80;;;0.90;96.30;;;;;;4956173;28;20487;-79
2021/01/29 11:50:00;;;;;;;3.50;2.70;;;1.00;96.30;;;;;;4939574;29;20426;-79
2021/01/29 11:52:37;;;;;;;2.80;1.93;;;1.20;96.30;;;;;;4956596;29;20418;-79
2021/01/29 11:55:12;;;;;;;6.20;3.40;;;1.30;96.30;;;;;;4956247;29;20804;-79
2021/01/29 11:58:13;;;;;;;3.33;2.00;;;1.30;96.30;;;;;;4956676;29;20870;-80
2021/01/29 12:00:47;;;;;;;3.13;1.90;;;1.30;96.30;;;;;;4938927;29;20458;-79
2021/01/29 12:03:22;;;;;;;2.97;2.10;;;1.40;96.30;;;;;;4955777;29;20758;-79
2021/01/29 12:06:10;;;;;;;4.83;1.50;;;1.40;96.30;;;;;;4954641;28;20430;-79
2021/01/29 12:09:06;;;;;;;4.00;2.50;;;1.40;96.30;;;;;;4937895;29;20844;-79
2021/01/29 12:11:56;;;;;;;2.57;1.70;;;1.20;96.30;;;;;;4935759;29;20434;-81
2021/01/29 12:14:31;;;;;;;6.97;3.57;;;1.30;96.30;;;;;;4934875;29;20444;-82
2021/01/29 12:17:04;;;;;;;14.53;4.13;;;1.20;96.30;;;;;;4948884;29;20822;-83
2021/01/29 12:19:36;;;;;;;4.60;2.60;;;1.20;96.30;;;;;;4956312;29;20513;-81
2021/01/29 12:22:19;;;;;;;8.90;5.37;;;1.20;96.30;;;;;;4939363;29;20510;-81
2021/01/29 12:25:09;;;;;;;7.60;3.93;;;1.20;96.30;;;;;;4939152;29;20427;-80
2021/01/29 12:27:50;;;;;;;5.87;3.50;;;1.30;96.30;;;;;;4956613;29;20410;-82
2021/01/29 12:30:27;;;;;;;3.60;2.43;;;1.30;96.30;;;;;;4939287;28;20435;-81
2021/01/29 12:33:14;;;;;;;3.00;2.60;;;1.40;96.30;;;;;;4938752;29;20415;-80
2021/01/29 12:35:42;;;;;;;3.93;2.47;;;1.40;96.30;;;;;;4956333;28;20448;-81
2021/01/29 12:38:41;;;;;;;49.20;24.33;;;1.40;96.30;;;;;;4956664;29;20473;-81
2021/01/29 12:41:35;;;;;;;3.53;2.33;;;1.50;96.30;;;;;;4956102;28;20443;-82
2021/01/29 12:44:29;;;;;;;8.77;5.50;;;1.40;96.30;;;;;;4952371;29;20841;-81
2021/01/29 12:47:14;;;;;;;2.67;2.13;;;1.30;96.30;;;;;;4954711;29;20465;-81
2021/01/29 12:49:59;;;;;;;2.87;2.20;;;1.30;96.30;;;;;;4955947;29;20835;-82
2021/01/29 12:52:38;;;;;;;2.63;2.40;;;1.40;96.30;;;;;;4939047;29;20497;-81
2021/01/29 12:55:27;;;;;;;2.83;2.00;;;1.40;96.30;;;;;;4955677;29;20429;-80
2021/01/29 12:58:03;;;;;;;11.33;7.47;;;1.40;96.30;;;;;;4943335;29;20558;-81
2021/01/29 13:00:38;;;;;;;4.17;2.70;;;1.30;96.30;;;;;;4939322;29;20830;-81
2021/01/29 13:03:15;;;;;;;5.67;3.13;;;1.30;96.30;;;;;;4937375;29;20474;-82
2021/01/29 13:06:09;;;;;;;4.23;3.13;;;1.40;96.30;;;;;;4955782;28;20442;-81
2021/01/29 13:08:46;;;;;;;42.07;23.60;;;1.40;96.30;;;;;;4939770;29;20431;-81
2021/01/29 13:11:55;;;;;;;10.10;6.40;;;1.40;96.30;;;;;;4957628;29;20457;-79
2021/01/29 13:14:41;;;;;;;11.00;5.20;;;1.40;96.30;;;;;;4959547;28;20418;-81
2021/01/29 13:17:20;;;;;;;27.07;16.20;;;1.40;96.30;;;;;;4938633;29;20458;-81
2021/01/29 13:19:47;;;;;;;1.70;1.40;;;1.50;96.30;;;;;;4956561;29;20863;-80
2021/01/29 13:22:18;;;;;;;8.27;6.03;;;1.50;96.30;;;;;;4957339;29;20425;-81
2021/01/29 13:24:44;;;;;;;4.00;3.00;;;;;;;;;;4979725;23;20575;-81
2021/01/29 13:27:15;;;;;;;23.00;13.70;;;1.50;96.30;;;;;;4977851;28;20417;-81
2021/01/29 13:29:41;;;;;;;4.20;3.00;;;;;;;;;;4997769;28;20772;-81
2021/01/29 13:32:23;;;;;;;4.53;3.07;;;1.50;96.30;;;;;;4972528;28;20529;-81
2021/01/29 13:34:50;;;;;;;5.93;3.40;;;1.60;96.30;;;;;;4997779;28;20459;-81
2021/01/29 13:37:25;;;;;;;7.17;5.03;;;1.50;96.30;;;;;;4960320;28;21018;-81
2021/01/29 13:40:04;;;;;;;4.27;3.10;;;1.50;96.30;;;;;;4961626;28;20980;-81
2021/01/29 13:42:33;;;;;;;2.10;1.90;;;1.40;96.30;;;;;;4960686;28;20457;-81
2021/01/29 13:45:01;;;;;;;2.97;1.90;;;1.40;96.30;;;;;;4960562;28;20512;-82
2021/01/29 13:47:39;;;;;;;2.97;2.13;;;1.40;96.30;;;;;;4961600;28;20447;-82
2021/01/29 13:50:34;;;;;;;6.77;1.67;;;1.50;96.30;;;;;;4959006;28;20968;-83
2021/01/29 13:53:04;;;;;;;1.87;1.00;;;1.70;96.30;;;;;;4976054;28;20448;-83
2021/01/29 13:55:48;;;;;;;1.63;0.87;;;1.60;96.30;;;;;;4958541;28;20437;-83
2021/01/29 13:58:39;;;;;;;1.00;0.80;;;1.80;96.30;;;;;;4959111;28;20484;-83
2021/01/29 14:01:47;;;;;;;1.97;1.00;;;1.90;96.30;;;;;;4946201;28;21052;-83
2021/01/29 14:04:27;;;;;;;0.90;0.77;;;2.10;96.30;;;;;;4936727;29;20453;-83
2021/01/29 14:06:52;;;;;;;2.47;1.20;;;2.20;96.30;;;;;;4974259;28;20464;-84
2021/01/29 14:09:18;;;;;;;1.00;0.90;;;2.30;96.30;;;;;;4973443;28;20453;-82
2021/01/29 14:12:09;;;;;;;3.33;0.90;;;2.40;96.30;;;;;;4973213;28;20658;-83
2021/01/29 14:14:48;;;;;;;1.30;1.00;;;2.50;96.30;;;;;;4972430;28;20234;-83
2021/01/29 14:17:39;;;;;;;2.10;0.90;;;2.50;96.30;;;;;;4973466;28;20435;-83
2021/01/29 14:20:43;;;;;;;2.60;0.80;;;2.60;96.30;;;;;;4954546;28;20474;-83
2021/01/29 14:23:09;;;;;;;1.00;0.90;;;;;;;;;;4955339;28;20405;-83
2021/01/29 14:25:58;;;;;;;1.70;1.10;;;2.70;96.30;;;;;;4956993;28;20458;-84
2021/01/29 14:28:51;;;;;;;1.50;1.00;;;2.70;96.30;;;;;;4957534;28;20178;-84
2021/01/29 14:31:42;;;;;;;3.60;1.00;;;2.70;96.30;;;;;;4970083;28;21207;-83
2021/01/29 14:34:18;;;;;;;5.00;1.10;;;2.70;96.30;;;;;;4933857;28;20447;-85
2021/01/29 14:36:50;;;;;;;2.40;0.90;;;2.70;96.30;;;;;;4956508;28;20449;-85
2021/01/29 14:39:47;;;;;;;2.87;1.20;;;2.60;96.30;;;;;;4964080;28;20468;-84
2021/01/29 14:42:21;;;;;;;3.57;1.00;;;2.60;96.30;;;;;;4956394;28;20924;-83
2021/01/29 14:45:05;;;;;;;2.00;1.27;;;2.60;96.30;;;;;;4973523;28;20464;-84
2021/01/29 14:47:52;;;;;;;1.07;0.80;;;2.50;96.30;;;;;;4956153;28;20794;-84
2021/01/29 14:50:27;;;;;;;0.97;0.80;;;2.60;96.30;;;;;;4967304;28;20464;-83
2021/01/29 14:53:16;;;;;;;1.33;0.90;;;2.60;96.30;;;;;;4975761;28;20417;-84
2021/01/29 14:56:08;;;;;;;1.63;0.93;;;2.70;96.30;;;;;;4956122;28;20536;-84
2021/01/29 14:58:39;;;;;;;1.77;0.80;;;2.60;96.30;;;;;;4954087;28;20960;-85
2021/01/29 15:01:09;;;;;;;2.23;1.00;;;2.60;96.30;;;;;;4972862;28;20499;-85
2021/01/29 15:03:44;;;;;;;1.30;0.90;;;2.60;96.30;;;;;;4961295;28;20426;-85
2021/01/29 15:06:12;;;;;;;2.03;0.87;;;2.60;96.30;;;;;;4949323;28;20952;-85
2021/01/29 15:08:45;;;;;;;1.27;0.80;;;2.60;96.30;;;;;;4975055;28;20423;-85
2021/01/29 15:11:14;;;;;;;1.00;0.77;;;2.60;96.30;;;;;;4950109;29;20423;-85
2021/01/29 15:13:47;;;;;;;1.53;0.97;;;2.60;96.30;;;;;;4961949;28;20517;-85
2021/01/29 15:16:41;;;;;;;1.00;0.80;;;2.60;96.30;;;;;;4960968;28;20433;-84
2021/01/29 15:19:22;;;;;;;1.10;0.70;;;2.50;96.30;;;;;;4955243;28;20469;-84
2021/01/29 15:21:54;;;;;;;1.37;0.90;;;2.50;96.30;;;;;;4956913;28;20795;-85
2021/01/29 15:24:39;;;;;;;0.93;0.73;;;2.50;96.30;;;;;;4973226;28;20464;-84
2021/01/29 15:27:10;;;;;;;2.27;1.00;;;2.50;96.30;;;;;;4954138;28;20472;-84
2021/01/29 15:30:00;;;;;;;1.53;1.00;;;2.50;96.30;;;;;;4975447;28;21275;-83
2021/01/29 15:32:40;;;;;;;2.80;1.00;;;2.60;96.30;;;;;;4956486;28;20433;-84
2021/01/29 15:35:24;;;;;;;1.10;0.70;;;2.60;96.30;;;;;;4957609;28;20489;-83
2021/01/29 15:37:52;;;;;;;2.13;1.17;;;2.70;96.30;;;;;;4956090;28;20796;-83
2021/01/29 15:40:36;;;;;;;2.10;0.97;;;2.80;96.30;;;;;;4976750;28;20466;-81
2021/01/29 15:43:23;;;;;;;2.07;1.03;;;2.80;96.30;;;;;;4978748;28;20405;-81
2021/01/29 15:46:17;;;;;;;1.23;1.00;;;2.60;96.30;;;;;;4960204;28;20445;-81
2021/01/29 15:49:05;;;;;;;1.60;1.10;;;2.70;96.30;;;;;;4932159;28;20424;-81
2021/01/29 15:51:46;;;;;;;2.30;0.80;;;2.50;96.30;;;;;;4960588;28;20487;-81
2021/01/29 15:54:43;;;;;;;3.73;1.00;;;2.60;96.30;;;;;;4961815;28;20434;-81
2021/01/29 15:57:17;;;;;;;2.93;1.30;;;2.70;96.30;;;;;;4961976;28;20414;-80
2021/01/29 15:59:46;;;;;;;1.80;1.30;;;2.60;96.30;;;;;;4961706;28;20512;-81
2021/01/29 16:02:50;;;;;;;2.70;1.80;;;2.60;96.30;;;;;;4977648;28;20852;-84
2021/01/29 16:05:44;;;;;;;5.90;1.40;;;2.60;96.30;;;;;;4964743;28;20442;-84
2021/01/29 16:08:16;;;;;;;1.80;1.20;;;2.60;96.30;;;;;;4981579;28;20464;-80
2021/01/29 16:10:42;;;;;;;3.20;1.83;;;2.50;96.30;;;;;;4978554;28;20433;-80
2021/01/29 16:13:30;;;;;;;4.80;2.40;;;2.60;96.30;;;;;;4962180;28;20847;-80
2021/01/29 16:16:24;;;;;;;3.63;1.63;;;2.60;96.30;;;;;;4962555;28;20444;-82
2021/01/29 16:18:54;;;;;;;2.60;1.90;;;2.60;96.30;;;;;;4965145;28;20450;-82
2021/01/29 16:21:24;;;;;;;5.67;2.57;;;2.60;96.30;;;;;;4966688;28;20472;-81
2021/01/29 16:23:53;;;;;;;3.10;1.73;;;2.60;96.30;;;;;;4965105;28;20504;-80
2021/01/29 16:26:23;;;;;;;6.07;2.40;;;2.60;96.30;;;;;;4960244;28;20421;-79
2021/01/29 16:28:57;;;;;;;3.20;2.10;;;2.60;96.30;;;;;;4977844;28;20417;-79
2021/01/29 16:31:42;;;;;;;9.33;2.50;;;2.60;96.30;;;;;;4975932;28;20429;-79
2021/01/29 16:34:20;;;;;;;6.10;2.10;;;2.60;96.30;;;;;;4962712;28;21123;-79
2021/01/29 16:37:00;;;;;;;4.57;1.97;;;2.60;96.30;;;;;;4953832;28;21158;-78
2021/01/29 16:39:32;;;;;;;6.17;2.27;;;2.70;96.30;;;;;;4958201;28;20453;-79
2021/01/29 16:42:20;;;;;;;9.83;2.50;;;2.60;96.30;;;;;;4975438;28;21048;-78
2021/01/29 16:44:57;;;;;;;4.60;2.37;;;2.70;96.30;;;;;;4958995;28;20433;-79
2021/01/29 16:47:24;;;;;;;8.40;2.50;;;2.70;96.30;;;;;;4976638;28;20409;-80
2021/01/29 16:50:24;;;;;;;10.67;2.63;;;2.70;96.30;;;;;;4959222;28;20417;-80
2021/01/29 16:53:12;;;;;;;10.13;2.77;;;2.80;96.30;;;;;;4963828;28;20512;-80
2021/01/29 16:55:40;;;;;;;7.20;2.20;;;2.80;96.30;;;;;;4969147;28;20469;-85
2021/01/29 16:58:28;;;;;;;12.33;2.90;;;2.80;96.30;;;;;;4958509;28;20488;-81
2021/01/29 17:01:02;;;;;;;10.70;2.70;;;2.80;96.30;;;;;;4957071;28;20469;-81
2021/01/29 17:03:33;;;;;;;10.90;2.93;;;2.70;96.30;;;;;;4972661;28;20414;-81
2021/01/29 17:06:21;;;;;;;13.53;4.00;;;2.70;96.30;;;;;;4955142;28;20489;-80
2021/01/29 17:08:46;;;;;;;13.20;3.97;;;2.80;96.30;;;;;;4957286;28;20425;-81
2021/01/29 17:11:19;;;;;;;10.20;2.10;;;2.80;96.30;;;;;;4958361;28;20434;-82
2021/01/29 17:13:45;;;;;;;7.37;2.43;;;2.80;96.30;;;;;;4978202;28;20190;-80
2021/01/29 17:16:14;;;;;;;6.97;2.60;;;2.90;96.30;;;;;;4957374;28;20464;-81
2021/01/29 17:18:39;;;;;;;12.23;2.23;;;2.90;96.30;;;;;;4959169;28;20484;-81
2021/01/29 17:21:05;;;;;;;12.33;3.40;;;2.90;96.30;;;;;;4974572;28;20461;-80
2021/01/29 17:23:32;;;;;;;7.97;3.00;;;2.80;96.30;;;;;;4956823;28;20183;-80
2021/01/29 17:26:04;;;;;;;15.63;3.00;;;2.80;96.30;;;;;;4973023;28;20422;-79
2021/01/29 17:28:33;;;;;;;15.63;3.23;;;2.90;96.30;;;;;;4953344;28;20464;-79
2021/01/29 17:31:06;;;;;;;16.17;2.73;;;3.00;96.30;;;;;;4957433;28;20422;-79
2021/01/29 17:33:32;;;;;;;12.13;2.70;;;3.00;96.30;;;;;;4956480;28;20487;-79
2021/01/29 17:36:27;;;;;;;12.30;2.60;;;3.00;96.30;;;;;;4973224;28;20779;-80
2021/01/29 17:39:17;;;;;;;16.00;4.50;;;3.10;96.30;;;;;;4956103;28;20426;-78
2021/01/29 17:41:46;;;;;;;13.20;3.73;;;3.00;96.30;;;;;;4973632;28;20424;-79
2021/01/29 17:44:22;;;;;;;9.27;2.80;;;2.90;96.30;;;;;;4973638;28;20468;-80
2021/01/29 17:46:49;;;;;;;12.70;3.10;;;2.90;96.30;;;;;;4972907;28;20413;-80
2021/01/29 17:49:15;;;;;;;12.30;3.17;;;2.90;96.30;;;;;;4973107;28;20428;-79
2021/01/29 17:51:42;;;;;;;5.90;2.73;;;2.90;96.30;;;;;;4973208;28;20413;-78
2021/01/29 17:54:14;;;;;;;7.27;2.57;;;2.90;96.30;;;;;;4955901;28;20210;-78
2021/01/29 17:56:41;;;;;;;15.83;2.83;;;2.90;96.30;;;;;;4972602;28;20796;-79
2021/01/29 17:59:06;;;;;;;11.53;2.37;;;2.90;96.30;;;;;;4996377;28;20448;-81
2021/01/29 18:01:55;;;;;;;8.73;2.50;;;3.00;96.30;;;;;;4996842;28;20469;-79
2021/01/29 18:04:51;;;;;;;7.10;2.40;;;3.00;96.30;;;;;;4975188;28;20225;-79